LEVX Airport Information

Runway Information
Runway 02 Length 7874 ft width 148 ft
Elevation 855 ft Threshold 0 ft Heading 11
Runway 20 Length 7874 ft Width 148 ft
Elevation 829 ft Threshold 0 ft Heading 191
Airport Frequencies
Type APP Name SANTIAGO A Frequency 120.2 MHZ
Type GND Name GND Frequency 121.7 MHZ
Type TWR Name TWR Frequency 118.45 MHZ
Airport Navaids
Type VOR-DME Name Vigo Frequency 113600 KHZ
Type NDB Name Vigo Frequency 345 KHZ
Type NDB Name Vigo Frequency 433 KHZ
Airport Weather Information & NOTAM
ADDS - METARS form results

(2323 UTC 27 September 2020)
Data provider http://aviationweather.gov/metar/data/
 
METAR text: LEVX 272300Z 01009KT CAVOK 12/10 Q1020 NOSIG
Conditions at: LEVX (VIGO/PEINADOR , ES) observed 2300 UTC 27 September 2020
Temperature: 12.0°C (54°F)
Dewpoint: 10.0°C (50°F) [RH = 88%]
Pressure (altimeter): 30.12 inches Hg (1020.0 mb)
Winds: from the N (10 degrees) at 10 MPH (9 knots; 4.6 m/s)
Visibility: 6 or more miles (10+ km)
Ceiling: ceiling and visibility are OK
Clouds: unknown
Weather: no significant weather observed at this time

METAR text: LEVX 272230Z 01009KT CAVOK 12/10 Q1020 NOSIG
Conditions at: LEVX (VIGO/PEINADOR , ES) observed 2230 UTC 27 September 2020
Temperature: 12.0°C (54°F)
Dewpoint: 10.0°C (50°F) [RH = 88%]
Pressure (altimeter): 30.12 inches Hg (1020.0 mb)
Winds: from the N (10 degrees) at 10 MPH (9 knots; 4.6 m/s)
Visibility: 6 or more miles (10+ km)
Ceiling: ceiling and visibility are OK
Clouds: unknown
Weather: no significant weather observed at this time

Forecast for: LEVX (VIGO/PEINADOR , ES)
Text: TAF LEVX 271700Z 2718/2818 36005KT CAVOK TX22/2813Z TN09/2806Z
Forecast period: 1800 UTC 27 September 2020 to 1800 UTC 28 September 2020
Forecast type: FROM: standard forecast or significant change
Winds: from the N (360 degrees) at 6 MPH (5 knots; 2.6 m/s)
Visibility: 6 or more miles (10+ km)
Ceiling: unknown
Clouds: missing
Weather: no significant weather forecast for this period